Time;durP1;ratioP1;P1;durP2;ratioP2;P2;SDS_P1;SDS_P2;PMS_P1;PMS_P2;Temp;Humidity;BMP_temperature;BMP_pressure;BME280_temperature;BME280_humidity;BME280_pressure;Samples;Min_cycle;Max_cycle;Signal;HPM_P1;HPM_P2
2022/10/27 00:00:46;;;;;;;;;;;24.10;45.90;;;;;;492211;242;1198;-74
2022/10/27 00:02:47;;;;;;;;;;;24.00;46.00;;;;;;492318;242;1248;-74
2022/10/27 00:04:48;;;;;;;;;;;24.00;46.00;;;;;;492246;242;1338;-74
2022/10/27 00:06:50;;;;;;;;;;;24.00;46.00;;;;;;492273;242;1161;-74
2022/10/27 00:08:51;;;;;;;;;;;24.00;46.00;;;;;;492275;242;1209;-75
2022/10/27 00:10:52;;;;;;;;;;;24.00;46.10;;;;;;492231;242;1174;-75
2022/10/27 00:12:54;;;;;;;;;;;24.00;46.00;;;;;;492259;242;1225;-75
2022/10/27 00:14:55;;;;;;;;;;;24.10;46.00;;;;;;492230;242;1259;-75
2022/10/27 00:16:56;;;;;;;;;;;24.10;45.90;;;;;;492319;242;1269;-75
2022/10/27 00:18:58;;;;;;;;;;;24.00;46.00;;;;;;492244;242;2191;-75
2022/10/27 00:20:59;;;;;;;;;;;24.00;46.10;;;;;;492246;242;1161;-74
2022/10/27 00:23:00;;;;;;;;;;;24.00;46.00;;;;;;492232;242;1187;-74
2022/10/27 00:25:02;;;;;;;;;;;24.00;45.90;;;;;;492263;242;1218;-74
2022/10/27 00:27:03;;;;;;;;;;;24.00;45.80;;;;;;492321;242;1158;-74
2022/10/27 00:29:04;;;;;;;;;;;24.00;45.80;;;;;;492280;242;1114;-74
2022/10/27 00:31:06;;;;;;;;;;;24.00;45.80;;;;;;492227;242;1179;-74
2022/10/27 00:33:07;;;;;;;;;;;24.00;45.80;;;;;;492352;242;1175;-74
2022/10/27 00:35:08;;;;;;;;;;;24.00;45.80;;;;;;492337;242;1231;-74
2022/10/27 00:37:10;;;;;;;;;;;24.00;45.70;;;;;;492279;242;1213;-74
2022/10/27 00:39:11;;;;;;;;;;;24.00;45.80;;;;;;492260;242;2183;-74
2022/10/27 00:41:12;;;;;;;;;;;24.00;45.80;;;;;;492297;242;1140;-74
2022/10/27 00:43:14;;;;;;;;;;;24.00;45.70;;;;;;492345;242;1273;-74
2022/10/27 00:45:15;;;;;;;;;;;24.00;45.70;;;;;;492259;242;1170;-75
2022/10/27 00:47:16;;;;;;;;;;;23.90;45.70;;;;;;492266;242;1146;-75
2022/10/27 00:49:18;;;;;;;;;;;24.00;45.70;;;;;;492262;242;1154;-75
2022/10/27 00:51:19;;;;;;;;;;;24.00;45.60;;;;;;492235;242;1211;-74
2022/10/27 00:53:20;;;;;;;;;;;24.00;45.60;;;;;;492275;242;1203;-74
2022/10/27 00:55:22;;;;;;;;;;;23.90;45.60;;;;;;492277;242;1184;-74
2022/10/27 00:57:23;;;;;;;;;;;23.90;45.60;;;;;;492278;242;1120;-74
2022/10/27 00:59:24;;;;;;;;;;;23.90;45.40;;;;;;492297;242;2176;-74
2022/10/27 01:01:26;;;;;;;;;;;23.90;45.50;;;;;;492267;242;1131;-74
2022/10/27 01:03:27;;;;;;;;;;;23.90;45.40;;;;;;492296;242;1099;-74
2022/10/27 01:05:28;;;;;;;;;;;23.90;45.40;;;;;;492276;242;1085;-74
2022/10/27 01:07:30;;;;;;;;;;;23.90;45.40;;;;;;492147;242;1171;-74
2022/10/27 01:09:31;;;;;;;;;;;24.00;45.40;;;;;;492258;242;1275;-74
2022/10/27 01:11:32;;;;;;;;;;;23.90;45.40;;;;;;492306;242;1140;-74
2022/10/27 01:13:34;;;;;;;;;;;23.90;45.40;;;;;;492256;242;1176;-74
2022/10/27 01:15:35;;;;;;;;;;;23.90;45.40;;;;;;492250;242;1228;-74
2022/10/27 01:17:36;;;;;;;;;;;23.90;45.30;;;;;;492260;242;1175;-74
2022/10/27 01:19:38;;;;;;;;;;;23.90;45.30;;;;;;492268;242;2191;-74
2022/10/27 01:21:39;;;;;;;;;;;23.90;45.20;;;;;;492306;242;1190;-74
2022/10/27 01:23:40;;;;;;;;;;;23.80;45.50;;;;;;492357;242;1143;-74
2022/10/27 01:25:41;;;;;;;;;;;23.90;45.50;;;;;;492322;242;1134;-75
2022/10/27 01:27:43;;;;;;;;;;;23.90;45.30;;;;;;492257;242;1127;-74
2022/10/27 01:29:44;;;;;;;;;;;24.00;45.20;;;;;;492266;242;1083;-75
2022/10/27 01:31:45;;;;;;;;;;;24.00;45.20;;;;;;492310;242;1302;-75
2022/10/27 01:33:47;;;;;;;;;;;24.00;45.10;;;;;;492434;242;1149;-74
2022/10/27 01:35:48;;;;;;;;;;;24.00;45.10;;;;;;492271;242;1175;-74
2022/10/27 01:37:49;;;;;;;;;;;24.00;45.00;;;;;;492257;242;1125;-75
2022/10/27 01:39:51;;;;;;;;;;;24.00;44.90;;;;;;492299;242;2195;-74
2022/10/27 01:41:52;;;;;;;;;;;24.10;44.90;;;;;;492266;242;1159;-74
2022/10/27 01:43:54;;;;;;;;;;;24.10;44.80;;;;;;492270;242;1160;-74
2022/10/27 01:45:55;;;;;;;;;;;24.10;44.70;;;;;;492241;242;1173;-74
2022/10/27 01:47:56;;;;;;;;;;;24.10;44.60;;;;;;492238;242;1112;-74
2022/10/27 01:49:58;;;;;;;;;;;24.10;44.50;;;;;;492297;242;1199;-74
2022/10/27 01:51:59;;;;;;;;;;;24.10;44.50;;;;;;492232;242;1105;-74
2022/10/27 01:54:00;;;;;;;;;;;24.10;44.50;;;;;;492213;242;1206;-74
2022/10/27 01:56:02;;;;;;;;;;;24.10;44.40;;;;;;492069;242;1186;-75
2022/10/27 01:58:03;;;;;;;;;;;24.20;44.40;;;;;;492157;242;1128;-74
2022/10/27 02:00:04;;;;;;;;;;;24.20;44.30;;;;;;492193;242;2180;-74
2022/10/27 02:02:06;;;;;;;;;;;24.20;44.30;;;;;;492102;242;1220;-74
2022/10/27 02:04:07;;;;;;;;;;;24.20;44.20;;;;;;492256;242;1168;-74
2022/10/27 02:06:08;;;;;;;;;;;24.20;44.10;;;;;;492121;242;1200;-74
2022/10/27 02:08:10;;;;;;;;;;;24.30;44.00;;;;;;492270;242;1163;-74
2022/10/27 02:10:11;;;;;;;;;;;24.30;44.10;;;;;;492231;242;1310;-74
2022/10/27 02:12:12;;;;;;;;;;;24.30;44.00;;;;;;492216;242;1113;-74
2022/10/27 02:14:14;;;;;;;;;;;24.20;44.00;;;;;;492197;242;1221;-74
2022/10/27 02:16:15;;;;;;;;;;;24.30;44.00;;;;;;492298;242;1210;-75
2022/10/27 02:18:16;;;;;;;;;;;24.30;43.70;;;;;;492243;242;1315;-75
2022/10/27 02:20:18;;;;;;;;;;;24.30;43.70;;;;;;492266;242;2129;-74
2022/10/27 02:22:19;;;;;;;;;;;24.40;43.80;;;;;;492241;242;1163;-74
2022/10/27 02:24:20;;;;;;;;;;;24.30;43.70;;;;;;492245;242;1214;-74
2022/10/27 02:26:22;;;;;;;;;;;24.20;43.90;;;;;;492287;242;1177;-74
2022/10/27 02:28:23;;;;;;;;;;;24.20;43.90;;;;;;492232;242;1170;-74
2022/10/27 02:30:24;;;;;;;;;;;24.10;43.90;;;;;;492255;242;1196;-74
2022/10/27 02:32:26;;;;;;;;;;;24.10;44.00;;;;;;492220;242;1175;-72
2022/10/27 02:34:27;;;;;;;;;;;24.10;43.90;;;;;;492222;242;1202;-72
2022/10/27 02:36:28;;;;;;;;;;;24.00;44.00;;;;;;492247;242;1535;-72
2022/10/27 02:38:30;;;;;;;;;;;24.00;44.00;;;;;;492197;242;1132;-72
2022/10/27 02:40:31;;;;;;;;;;;24.00;44.00;;;;;;492221;242;2164;-72
2022/10/27 02:42:32;;;;;;;;;;;23.90;44.10;;;;;;492246;242;1183;-72
2022/10/27 02:44:34;;;;;;;;;;;24.00;44.00;;;;;;492192;242;1206;-72
2022/10/27 02:46:35;;;;;;;;;;;23.90;44.00;;;;;;492190;242;1281;-72
2022/10/27 02:48:36;;;;;;;;;;;23.90;44.00;;;;;;492206;242;1141;-72
2022/10/27 02:50:38;;;;;;;;;;;23.90;44.00;;;;;;492201;242;1176;-72
2022/10/27 02:52:39;;;;;;;;;;;23.90;44.00;;;;;;492234;242;1182;-72
2022/10/27 02:54:40;;;;;;;;;;;23.80;44.10;;;;;;492211;242;1256;-72
2022/10/27 02:56:42;;;;;;;;;;;23.80;44.00;;;;;;492220;242;1164;-72
2022/10/27 02:58:43;;;;;;;;;;;23.80;43.90;;;;;;492221;242;1109;-72
2022/10/27 03:00:44;;;;;;;;;;;23.90;43.80;;;;;;492194;242;2196;-72
2022/10/27 03:02:46;;;;;;;;;;;23.80;44.00;;;;;;492244;242;1103;-72
2022/10/27 03:04:47;;;;;;;;;;;23.80;43.90;;;;;;492235;242;1092;-72
2022/10/27 03:06:48;;;;;;;;;;;23.90;43.80;;;;;;492166;242;1169;-72
2022/10/27 03:08:50;;;;;;;;;;;23.90;43.70;;;;;;492206;242;1115;-72
2022/10/27 03:10:51;;;;;;;;;;;23.90;43.40;;;;;;492182;242;1250;-72
2022/10/27 03:12:52;;;;;;;;;;;24.00;43.40;;;;;;492167;242;1166;-72
2022/10/27 03:14:54;;;;;;;;;;;24.00;43.30;;;;;;492169;242;1198;-72
2022/10/27 03:16:55;;;;;;;;;;;24.10;43.10;;;;;;492183;242;1267;-74
2022/10/27 03:18:56;;;;;;;;;;;24.00;43.00;;;;;;492225;242;1307;-74
2022/10/27 03:20:58;;;;;;;;;;;24.00;43.10;;;;;;492268;242;2168;-74
2022/10/27 03:22:59;;;;;;;;;;;24.00;43.10;;;;;;492214;242;1133;-74
2022/10/27 03:25:00;;;;;;;;;;;24.00;43.00;;;;;;492223;242;1229;-74
2022/10/27 03:27:02;;;;;;;;;;;24.10;43.10;;;;;;492305;242;1161;-74
2022/10/27 03:29:03;;;;;;;;;;;24.00;42.90;;;;;;492224;242;1293;-74
2022/10/27 03:31:04;;;;;;;;;;;24.00;42.80;;;;;;492295;242;1144;-74
2022/10/27 03:33:06;;;;;;;;;;;24.10;42.90;;;;;;492344;242;1291;-74
2022/10/27 03:35:07;;;;;;;;;;;24.10;42.80;;;;;;492243;242;1121;-74
2022/10/27 03:37:08;;;;;;;;;;;24.00;42.80;;;;;;492174;242;1183;-74
2022/10/27 03:39:10;;;;;;;;;;;24.00;42.70;;;;;;492250;242;2172;-74
2022/10/27 03:41:11;;;;;;;;;;;24.10;42.70;;;;;;492230;242;1305;-74
2022/10/27 03:43:12;;;;;;;;;;;24.10;42.70;;;;;;492188;242;1235;-74
2022/10/27 03:45:14;;;;;;;;;;;24.10;42.70;;;;;;492225;242;1308;-74
2022/10/27 03:47:15;;;;;;;;;;;24.10;42.60;;;;;;492268;242;1132;-74
2022/10/27 03:49:16;;;;;;;;;;;24.10;42.60;;;;;;492332;242;1175;-74
2022/10/27 03:51:18;;;;;;;;;;;24.00;42.60;;;;;;492282;242;1160;-74
2022/10/27 03:53:19;;;;;;;;;;;24.00;42.50;;;;;;492223;242;1232;-74
2022/10/27 03:55:20;;;;;;;;;;;24.00;42.50;;;;;;492229;242;1095;-74
2022/10/27 03:57:22;;;;;;;;;;;24.00;42.50;;;;;;492228;242;1185;-74
2022/10/27 03:59:23;;;;;;;;;;;24.00;42.50;;;;;;492308;242;2152;-74
2022/10/27 04:01:24;;;;;;;;;;;24.00;42.50;;;;;;492274;242;1579;-74
2022/10/27 04:03:26;;;;;;;;;;;24.00;42.30;;;;;;492228;242;1238;-74
2022/10/27 04:05:27;;;;;;;;;;;24.00;42.40;;;;;;492239;242;1277;-74
2022/10/27 04:07:28;;;;;;;;;;;24.00;42.40;;;;;;492239;242;1219;-74
2022/10/27 04:09:30;;;;;;;;;;;24.00;42.40;;;;;;492307;242;1202;-74
2022/10/27 04:11:31;;;;;;;;;;;24.00;42.50;;;;;;492187;242;1197;-74
2022/10/27 04:13:32;;;;;;;;;;;24.00;42.40;;;;;;492250;242;1141;-74
2022/10/27 04:15:34;;;;;;;;;;;24.00;42.30;;;;;;492221;242;1152;-74
2022/10/27 04:17:35;;;;;;;;;;;24.00;42.20;;;;;;492304;242;1155;-74
2022/10/27 04:19:36;;;;;;;;;;;24.10;42.40;;;;;;492112;242;2184;-74
2022/10/27 04:21:38;;;;;;;;;;;24.00;42.30;;;;;;492161;242;1128;-74
2022/10/27 04:23:39;;;;;;;;;;;24.00;42.20;;;;;;492235;242;1171;-74
2022/10/27 04:25:40;;;;;;;;;;;24.00;42.30;;;;;;492223;242;1198;-74
2022/10/27 04:27:42;;;;;;;;;;;24.00;42.20;;;;;;492202;242;1261;-74
2022/10/27 04:29:43;;;;;;;;;;;24.00;42.20;;;;;;492246;242;1274;-74
2022/10/27 04:31:44;;;;;;;;;;;24.00;42.10;;;;;;492204;242;1130;-74
2022/10/27 04:33:45;;;;;;;;;;;24.00;42.10;;;;;;492256;242;1217;-74
2022/10/27 04:35:47;;;;;;;;;;;24.00;42.10;;;;;;492266;242;1173;-74
2022/10/27 04:37:48;;;;;;;;;;;24.00;42.00;;;;;;492197;242;1164;-74
2022/10/27 04:39:49;;;;;;;;;;;24.00;41.90;;;;;;492209;242;2176;-74
2022/10/27 04:41:51;;;;;;;;;;;24.00;41.90;;;;;;492196;242;1127;-74
2022/10/27 04:43:52;;;;;;;;;;;24.00;41.90;;;;;;492216;242;1123;-74
2022/10/27 04:45:53;;;;;;;;;;;24.00;41.80;;;;;;492158;242;1179;-74
2022/10/27 04:47:55;;;;;;;;;;;24.00;41.80;;;;;;492180;242;1171;-74
2022/10/27 04:49:56;;;;;;;;;;;24.00;41.80;;;;;;492257;242;1109;-74
2022/10/27 04:51:57;;;;;;;;;;;24.10;41.80;;;;;;492254;242;1076;-74
2022/10/27 04:53:59;;;;;;;;;;;24.00;41.70;;;;;;492236;242;1110;-74
2022/10/27 04:56:00;;;;;;;;;;;24.00;41.70;;;;;;492196;242;1128;-74
2022/10/27 04:58:01;;;;;;;;;;;24.00;41.70;;;;;;492211;242;1077;-74
2022/10/27 05:00:03;;;;;;;;;;;24.00;41.70;;;;;;492197;242;2160;-75
2022/10/27 05:02:04;;;;;;;;;;;24.00;41.60;;;;;;492089;242;1173;-74
2022/10/27 05:04:05;;;;;;;;;;;24.00;41.70;;;;;;492183;242;1114;-74
2022/10/27 05:06:07;;;;;;;;;;;24.00;41.70;;;;;;492189;242;1142;-74
2022/10/27 05:08:08;;;;;;;;;;;24.00;41.60;;;;;;492137;242;1210;-74
2022/10/27 05:10:09;;;;;;;;;;;24.00;41.60;;;;;;492141;242;1240;-74
2022/10/27 05:12:11;;;;;;;;;;;24.00;41.50;;;;;;492161;242;1125;-74
2022/10/27 05:14:12;;;;;;;;;;;24.00;41.60;;;;;;492237;242;1324;-74
2022/10/27 05:16:13;;;;;;;;;;;24.00;41.50;;;;;;492075;242;1312;-74
2022/10/27 05:18:15;;;;;;;;;;;24.00;41.30;;;;;;492127;242;1139;-74
2022/10/27 05:20:16;;;;;;;;;;;24.00;41.40;;;;;;492120;242;2180;-74
2022/10/27 05:22:17;;;;;;;;;;;24.00;41.40;;;;;;491828;242;1240;-74
2022/10/27 05:24:18;;;;;;;;;;;24.00;41.30;;;;;;492148;242;1184;-74
2022/10/27 05:26:20;;;;;;;;;;;24.00;41.30;;;;;;491929;242;1210;-74
2022/10/27 05:28:21;;;;;;;;;;;24.00;41.20;;;;;;492148;242;1159;-74
2022/10/27 05:30:23;;;;;;;;;;;24.10;41.20;;;;;;492076;242;1252;-74
2022/10/27 05:32:24;;;;;;;;;;;24.10;41.20;;;;;;491976;242;1314;-74
2022/10/27 05:34:25;;;;;;;;;;;24.00;41.10;;;;;;492152;242;1214;-74
2022/10/27 05:36:26;;;;;;;;;;;24.10;41.10;;;;;;492097;242;1068;-74
2022/10/27 05:38:28;;;;;;;;;;;24.00;41.00;;;;;;492093;242;1171;-74
2022/10/27 05:40:33;;;;;;;;;;;24.10;41.10;;;;;;492045;242;2180;-74
2022/10/27 05:42:31;;;;;;;;;;;24.10;41.00;;;;;;492202;242;1402;-74
2022/10/27 05:44:32;;;;;;;;;;;24.10;41.00;;;;;;492072;242;1173;-74
2022/10/27 05:46:33;;;;;;;;;;;24.10;40.90;;;;;;492147;242;1096;-74
2022/10/27 05:48:34;;;;;;;;;;;24.10;40.90;;;;;;492029;242;1163;-74
2022/10/27 05:50:36;;;;;;;;;;;24.10;40.90;;;;;;492007;242;1165;-74
2022/10/27 05:52:37;;;;;;;;;;;24.10;40.90;;;;;;491947;242;1286;-74
2022/10/27 05:54:38;;;;;;;;;;;24.10;40.80;;;;;;492004;242;1172;-74
2022/10/27 05:56:40;;;;;;;;;;;24.10;40.70;;;;;;491832;242;1153;-74
2022/10/27 05:58:41;;;;;;;;;;;24.10;40.70;;;;;;492081;242;1192;-74
2022/10/27 06:00:42;;;;;;;;;;;24.10;40.70;;;;;;492116;242;2168;-74
2022/10/27 06:02:44;;;;;;;;;;;24.10;40.60;;;;;;491934;242;1308;-74
2022/10/27 06:04:45;;;;;;;;;;;24.10;40.60;;;;;;492059;242;1167;-74
2022/10/27 06:06:46;;;;;;;;;;;24.10;40.60;;;;;;491954;242;1187;-74
2022/10/27 06:08:48;;;;;;;;;;;24.10;40.60;;;;;;492029;242;1076;-74
2022/10/27 06:10:49;;;;;;;;;;;24.10;40.50;;;;;;491963;242;1133;-74
2022/10/27 06:12:50;;;;;;;;;;;24.10;40.50;;;;;;492069;242;1423;-74
2022/10/27 06:14:52;;;;;;;;;;;24.10;40.50;;;;;;492076;242;1102;-74
2022/10/27 06:16:53;;;;;;;;;;;24.20;40.40;;;;;;492110;242;1182;-74
2022/10/27 06:18:55;;;;;;;;;;;24.10;40.40;;;;;;492225;242;1221;-74
2022/10/27 06:20:56;;;;;;;;;;;24.10;40.40;;;;;;492057;242;2156;-74
2022/10/27 06:22:57;;;;;;;;;;;24.10;40.40;;;;;;492090;242;1176;-74
2022/10/27 06:24:58;;;;;;;;;;;24.10;40.40;;;;;;492170;242;1124;-74
2022/10/27 06:27:00;;;;;;;;;;;24.20;40.40;;;;;;492148;242;1199;-75
2022/10/27 06:29:01;;;;;;;;;;;24.10;40.40;;;;;;492104;242;1214;-74
2022/10/27 06:31:02;;;;;;;;;;;24.10;40.40;;;;;;492118;242;1090;-74
2022/10/27 06:33:04;;;;;;;;;;;24.20;40.40;;;;;;491772;242;1215;-74
2022/10/27 06:35:05;;;;;;;;;;;24.10;40.30;;;;;;492084;242;1258;-74
2022/10/27 06:37:06;;;;;;;;;;;24.20;40.30;;;;;;492204;242;1144;-74
2022/10/27 06:39:08;;;;;;;;;;;24.10;40.30;;;;;;492088;242;1114;-74
2022/10/27 06:41:09;;;;;;;;;;;24.10;40.30;;;;;;491943;242;2152;-74
2022/10/27 06:43:10;;;;;;;;;;;24.20;40.20;;;;;;491969;242;1130;-74
2022/10/27 06:45:11;;;;;;;;;;;24.20;40.30;;;;;;491961;242;1189;-74
2022/10/27 06:47:13;;;;;;;;;;;24.10;40.30;;;;;;491977;242;1123;-74
2022/10/27 06:49:14;;;;;;;;;;;24.00;40.40;;;;;;492119;242;1157;-74
2022/10/27 06:51:15;;;;;;;;;;;24.00;40.60;;;;;;492013;242;1109;-74
2022/10/27 06:53:17;;;;;;;;;;;23.90;40.70;;;;;;492007;242;1092;-74
2022/10/27 06:55:18;;;;;;;;;;;23.90;40.70;;;;;;492007;242;1161;-74
2022/10/27 06:57:19;;;;;;;;;;;23.90;40.80;;;;;;492012;242;1157;-74
2022/10/27 06:59:21;;;;;;;;;;;23.80;41.00;;;;;;491889;242;1176;-74
2022/10/27 07:01:22;;;;;;;;;;;23.80;41.00;;;;;;491731;242;2141;-74
2022/10/27 07:03:23;;;;;;;;;;;23.80;41.00;;;;;;491615;242;1079;-74
2022/10/27 07:05:25;;;;;;;;;;;23.80;41.10;;;;;;491515;242;1144;-74
2022/10/27 07:07:26;;;;;;;;;;;23.80;41.10;;;;;;491510;242;1174;-74
2022/10/27 07:09:27;;;;;;;;;;;23.70;41.20;;;;;;491460;242;1163;-74
2022/10/27 07:11:29;;;;;;;;;;;23.70;41.40;;;;;;491495;242;1165;-74
2022/10/27 07:13:30;;;;;;;;;;;23.70;41.50;;;;;;491480;242;1321;-74
2022/10/27 07:15:31;;;;;;;;;;;23.60;41.50;;;;;;491373;242;1124;-74
2022/10/27 07:17:33;;;;;;;;;;;23.70;41.60;;;;;;491496;242;1175;-74
2022/10/27 07:19:34;;;;;;;;;;;23.60;41.90;;;;;;491545;242;1157;-74
2022/10/27 07:21:35;;;;;;;;;;;23.50;42.00;;;;;;491408;242;2191;-74
2022/10/27 07:23:37;;;;;;;;;;;23.60;42.10;;;;;;491418;242;1167;-74
2022/10/27 07:25:38;;;;;;;;;;;23.50;42.20;;;;;;491506;242;1144;-74
2022/10/27 07:27:39;;;;;;;;;;;23.50;42.40;;;;;;491863;242;1128;-74
2022/10/27 07:29:41;;;;;;;;;;;23.50;42.60;;;;;;491520;242;1189;-74
2022/10/27 07:31:42;;;;;;;;;;;23.40;42.90;;;;;;491536;242;1502;-74
2022/10/27 07:33:43;;;;;;;;;;;23.50;42.90;;;;;;491595;242;1163;-74
2022/10/27 07:35:45;;;;;;;;;;;23.50;42.90;;;;;;491598;242;1231;-74
2022/10/27 07:37:46;;;;;;;;;;;23.60;42.90;;;;;;491552;242;1122;-74
2022/10/27 07:39:48;;;;;;;;;;;23.60;42.80;;;;;;491416;242;1188;-74
2022/10/27 07:41:48;;;;;;;;;;;23.70;42.80;;;;;;491413;242;2195;-74
2022/10/27 07:43:50;;;;;;;;;;;23.80;42.80;;;;;;491426;242;1095;-74
2022/10/27 07:45:51;;;;;;;;;;;23.80;42.80;;;;;;491444;242;1177;-75
2022/10/27 07:47:52;;;;;;;;;;;23.90;42.80;;;;;;491457;242;1126;-73
2022/10/27 07:49:54;;;;;;;;;;;23.90;42.70;;;;;;491538;242;1242;-74
2022/10/27 07:51:55;;;;;;;;;;;24.00;42.80;;;;;;491529;242;1144;-74
2022/10/27 07:53:56;;;;;;;;;;;24.10;42.90;;;;;;491536;242;1195;-74
2022/10/27 07:55:58;;;;;;;;;;;24.10;42.80;;;;;;491471;242;1175;-74
2022/10/27 07:57:59;;;;;;;;;;;24.10;42.80;;;;;;491487;242;1352;-74
2022/10/27 08:00:01;;;;;;;;;;;24.20;42.80;;;;;;491406;242;1161;-74
2022/10/27 08:02:02;;;;;;;;;;;24.20;42.70;;;;;;491569;242;2244;-74
2022/10/27 08:04:03;;;;;;;;;;;24.30;42.80;;;;;;491528;242;1270;-74
2022/10/27 08:06:05;;;;;;;;;;;24.30;42.80;;;;;;491616;242;1497;-74
2022/10/27 08:08:06;;;;;;;;;;;24.30;42.70;;;;;;491514;242;1342;-74
2022/10/27 08:10:08;;;;;;;;;;;24.30;42.90;;;;;;491415;242;1189;-74
2022/10/27 08:12:09;;;;;;;;;;;24.20;43.00;;;;;;491436;242;1104;-74
2022/10/27 08:14:11;;;;;;;;;;;24.20;43.10;;;;;;491582;242;1191;-74
2022/10/27 08:16:13;;;;;;;;;;;24.20;43.30;;;;;;491408;242;1091;-74
2022/10/27 08:18:14;;;;;;;;;;;24.20;43.20;;;;;;491650;242;1083;-74
2022/10/27 08:20:15;;;;;;;;;;;24.10;43.50;;;;;;491864;242;1193;-74
2022/10/27 08:22:17;;;;;;;;;;;24.10;43.60;;;;;;491487;242;2196;-74
2022/10/27 08:24:18;;;;;;;;;;;24.10;43.70;;;;;;491531;242;1203;-74
2022/10/27 08:26:19;;;;;;;;;;;24.10;43.70;;;;;;491514;242;1169;-74
2022/10/27 08:28:23;;;;;;;;;;;24.10;43.80;;;;;;491373;242;1173;-74
2022/10/27 08:30:22;;;;;;;;;;;24.10;43.90;;;;;;491478;242;1402;-74
2022/10/27 08:32:23;;;;;;;;;;;24.00;44.00;;;;;;491467;242;1447;-74
2022/10/27 08:34:25;;;;;;;;;;;24.00;44.10;;;;;;491496;242;1146;-74
2022/10/27 08:36:26;;;;;;;;;;;24.00;44.20;;;;;;491567;242;1176;-74
2022/10/27 08:38:31;;;;;;;;;;;24.00;44.20;;;;;;491374;242;1177;-74
2022/10/27 08:40:29;;;;;;;;;;;24.00;44.20;;;;;;491469;242;1285;-74
2022/10/27 08:42:30;;;;;;;;;;;24.00;44.20;;;;;;491404;242;2183;-74
2022/10/27 08:44:32;;;;;;;;;;;24.00;44.30;;;;;;491666;242;1199;-74
2022/10/27 08:46:33;;;;;;;;;;;24.00;44.40;;;;;;491506;242;1114;-74
2022/10/27 08:48:34;;;;;;;;;;;24.00;44.50;;;;;;491573;242;1151;-74
2022/10/27 08:50:36;;;;;;;;;;;24.00;44.60;;;;;;491502;242;1352;-74
2022/10/27 08:52:37;;;;;;;;;;;24.00;44.60;;;;;;491514;242;1129;-74
2022/10/27 08:54:38;;;;;;;;;;;24.00;44.50;;;;;;491332;242;1265;-74
2022/10/27 08:56:40;;;;;;;;;;;24.00;44.60;;;;;;491358;242;1342;-74
2022/10/27 08:58:41;;;;;;;;;;;24.00;44.60;;;;;;491420;242;1232;-74
2022/10/27 09:00:42;;;;;;;;;;;24.00;44.60;;;;;;491790;242;1090;-74
2022/10/27 09:02:44;;;;;;;;;;;23.90;44.70;;;;;;492148;242;2196;-74
2022/10/27 09:04:45;;;;;;;;;;;23.90;44.80;;;;;;491720;242;1108;-74
2022/10/27 09:06:46;;;;;;;;;;;23.90;44.80;;;;;;491780;242;1190;-74
2022/10/27 09:08:48;;;;;;;;;;;23.90;44.90;;;;;;491734;242;1517;-74
2022/10/27 09:10:49;;;;;;;;;;;23.90;45.00;;;;;;491546;242;1334;-74
2022/10/27 09:12:51;;;;;;;;;;;23.90;45.10;;;;;;491488;242;1164;-74
2022/10/27 09:14:52;;;;;;;;;;;23.90;45.10;;;;;;492352;242;1243;-74
2022/10/27 09:16:53;;;;;;;;;;;23.90;45.10;;;;;;491856;242;1178;-74
2022/10/27 09:18:55;;;;;;;;;;;23.90;45.10;;;;;;492105;242;1170;-74
2022/10/27 09:20:56;;;;;;;;;;;23.80;45.30;;;;;;491593;242;1248;-74
2022/10/27 09:22:57;;;;;;;;;;;23.80;45.40;;;;;;491505;242;2172;-74
2022/10/27 09:24:58;;;;;;;;;;;23.80;45.40;;;;;;491499;242;1197;-74
2022/10/27 09:27:01;;;;;;;;;;;23.80;45.50;;;;;;491345;242;1154;-74
2022/10/27 09:29:01;;;;;;;;;;;23.70;45.80;;;;;;491332;242;2292;-74
2022/10/27 09:31:02;;;;;;;;;;;23.70;45.90;;;;;;491522;242;1123;-74
2022/10/27 09:33:04;;;;;;;;;;;23.70;45.90;;;;;;491458;242;1195;-74
2022/10/27 09:35:05;;;;;;;;;;;23.70;45.90;;;;;;491531;242;1125;-74
2022/10/27 09:37:07;;;;;;;;;;;23.70;45.80;;;;;;491538;242;1485;-74
2022/10/27 09:39:08;;;;;;;;;;;23.80;46.00;;;;;;491527;242;1249;-74
2022/10/27 09:41:09;;;;;;;;;;;23.80;46.00;;;;;;490244;242;1167;-74
2022/10/27 09:43:10;;;;;;;;;;;23.80;45.90;;;;;;491218;242;2180;-74
2022/10/27 09:45:12;;;;;;;;;;;23.80;45.80;;;;;;491852;242;1349;-74
2022/10/27 09:47:13;;;;;;;;;;;23.80;45.90;;;;;;491462;242;1233;-74
2022/10/27 09:49:14;;;;;;;;;;;23.80;45.80;;;;;;491583;242;1178;-74
2022/10/27 09:51:16;;;;;;;;;;;23.90;46.00;;;;;;491593;242;1079;-74
2022/10/27 09:53:17;;;;;;;;;;;23.90;45.90;;;;;;491515;242;1465;-74
2022/10/27 09:55:18;;;;;;;;;;;23.90;45.80;;;;;;491426;242;1127;-74
2022/10/27 09:57:20;;;;;;;;;;;23.90;45.90;;;;;;491477;242;1137;-74
2022/10/27 09:59:21;;;;;;;;;;;23.90;46.00;;;;;;491454;242;1150;-74
2022/10/27 10:01:23;;;;;;;;;;;23.90;46.10;;;;;;491391;242;1178;-74
2022/10/27 10:03:24;;;;;;;;;;;23.90;46.10;;;;;;491522;242;2121;-74
2022/10/27 10:05:25;;;;;;;;;;;23.90;46.10;;;;;;491498;242;1591;-74
2022/10/27 10:07:27;;;;;;;;;;;23.90;46.20;;;;;;491511;242;1168;-74
2022/10/27 10:09:28;;;;;;;;;;;23.90;46.20;;;;;;491481;242;1220;-74
2022/10/27 10:11:29;;;;;;;;;;;23.90;46.20;;;;;;491527;242;1163;-74
2022/10/27 10:13:31;;;;;;;;;;;23.90;46.20;;;;;;491692;242;1191;-74
2022/10/27 10:15:32;;;;;;;;;;;23.90;46.20;;;;;;491283;242;1201;-74
2022/10/27 10:17:33;;;;;;;;;;;24.00;46.10;;;;;;491364;242;1351;-74
2022/10/27 10:19:35;;;;;;;;;;;24.00;46.30;;;;;;491386;242;1379;-74
2022/10/27 10:21:36;;;;;;;;;;;23.90;46.40;;;;;;491448;242;2200;-74
2022/10/27 10:23:37;;;;;;;;;;;23.90;46.40;;;;;;491476;242;1335;-74
2022/10/27 10:25:40;;;;;;;;;;;23.90;46.60;;;;;;491551;242;1220;-74
2022/10/27 10:27:40;;;;;;;;;;;23.90;46.60;;;;;;491366;242;1354;-74
2022/10/27 10:29:41;;;;;;;;;;;23.90;46.60;;;;;;491553;242;1038;-74
2022/10/27 10:31:43;;;;;;;;;;;23.90;46.60;;;;;;491565;242;1065;-74
2022/10/27 10:33:45;;;;;;;;;;;23.90;46.60;;;;;;491518;242;1095;-74
2022/10/27 10:35:45;;;;;;;;;;;24.00;46.50;;;;;;491475;242;1244;-74
2022/10/27 10:37:47;;;;;;;;;;;24.00;46.60;;;;;;491487;242;1094;-74
2022/10/27 10:39:48;;;;;;;;;;;24.00;46.70;;;;;;491502;242;1161;-74
2022/10/27 10:41:49;;;;;;;;;;;23.90;46.60;;;;;;491573;242;2188;-74
2022/10/27 10:43:51;;;;;;;;;;;24.00;46.60;;;;;;491545;242;1086;-74
2022/10/27 10:45:52;;;;;;;;;;;24.00;46.70;;;;;;491485;242;1521;-74
2022/10/27 10:47:53;;;;;;;;;;;24.00;46.70;;;;;;491519;242;1190;-74
2022/10/27 10:49:55;;;;;;;;;;;23.90;46.70;;;;;;491622;242;1152;-74
2022/10/27 10:51:56;;;;;;;;;;;23.90;46.70;;;;;;491624;242;1104;-74
2022/10/27 10:53:57;;;;;;;;;;;23.90;46.70;;;;;;491526;242;1271;-74
2022/10/27 10:56:00;;;;;;;;;;;23.90;46.60;;;;;;491510;242;1244;-74
2022/10/27 10:58:00;;;;;;;;;;;24.00;46.70;;;;;;491327;242;1441;-74
2022/10/27 11:00:02;;;;;;;;;;;23.90;46.70;;;;;;491517;242;1223;-74
2022/10/27 11:02:03;;;;;;;;;;;24.00;46.60;;;;;;491205;242;2180;-74
2022/10/27 11:04:05;;;;;;;;;;;23.90;46.60;;;;;;491450;242;1181;-74
2022/10/27 11:06:06;;;;;;;;;;;23.90;46.60;;;;;;491477;242;1193;-74
2022/10/27 11:08:07;;;;;;;;;;;23.90;46.60;;;;;;491741;242;1147;-74
2022/10/27 11:10:09;;;;;;;;;;;23.90;46.60;;;;;;491547;242;1067;-74
2022/10/27 11:12:10;;;;;;;;;;;23.90;46.60;;;;;;491604;242;1172;-74
2022/10/27 11:14:11;;;;;;;;;;;23.90;46.60;;;;;;491523;242;1156;-74
2022/10/27 11:16:13;;;;;;;;;;;24.00;46.60;;;;;;491788;242;1109;-74
2022/10/27 11:18:14;;;;;;;;;;;24.10;46.30;;;;;;491887;242;1095;-74
2022/10/27 11:20:15;;;;;;;;;;;24.00;46.50;;;;;;491666;242;1075;-74
2022/10/27 11:22:17;;;;;;;;;;;24.00;46.40;;;;;;491782;242;2196;-74
2022/10/27 11:24:18;;;;;;;;;;;24.00;46.50;;;;;;492454;242;1109;-74
2022/10/27 11:26:19;;;;;;;;;;;24.00;46.50;;;;;;491615;242;1272;-74
2022/10/27 11:28:21;;;;;;;;;;;24.00;46.50;;;;;;491461;242;1104;-74
2022/10/27 11:30:22;;;;;;;;;;;24.00;46.50;;;;;;491406;242;1100;-74
2022/10/27 11:32:23;;;;;;;;;;;23.90;46.50;;;;;;491541;242;1178;-74
2022/10/27 11:34:24;;;;;;;;;;;24.00;46.30;;;;;;491549;242;1110;-74
2022/10/27 11:36:26;;;;;;;;;;;24.00;46.20;;;;;;491557;242;1178;-74
2022/10/27 11:38:27;;;;;;;;;;;24.00;46.20;;;;;;491429;242;1159;-74
2022/10/27 11:40:28;;;;;;;;;;;24.00;46.10;;;;;;491432;242;1145;-74
2022/10/27 11:42:30;;;;;;;;;;;23.90;46.00;;;;;;491435;242;2204;-74
2022/10/27 11:44:31;;;;;;;;;;;24.00;46.00;;;;;;491386;242;1196;-74
2022/10/27 11:46:32;;;;;;;;;;;24.00;46.00;;;;;;491792;242;1405;-74
2022/10/27 11:48:34;;;;;;;;;;;24.00;46.00;;;;;;491808;242;1306;-74
2022/10/27 11:50:35;;;;;;;;;;;24.00;45.90;;;;;;491279;242;1219;-74
2022/10/27 11:52:36;;;;;;;;;;;24.00;46.00;;;;;;491430;242;1212;-74
2022/10/27 11:54:38;;;;;;;;;;;24.00;46.00;;;;;;491443;242;1287;-74
2022/10/27 11:56:39;;;;;;;;;;;23.90;46.10;;;;;;491417;242;1132;-74